sensor_id;sensor_type;location;lat;lon;timestamp;pressure;altitude;pressure_sealevel;temperature;humidity
45525;BME280;31437;58.350;13.828;2022-09-09T00:00:21;100328.22;;;8.78;100.00
45525;BME280;31437;58.350;13.828;2022-09-09T00:02:54;100334.38;;;8.77;100.00
45525;BME280;31437;58.350;13.828;2022-09-09T00:08:07;100328.22;;;8.78;100.00
45525;BME280;31437;58.350;13.828;2022-09-09T00:10:39;100329.06;;;8.78;100.00
45525;BME280;31437;58.350;13.828;2022-09-09T00:20:48;100324.34;;;8.86;100.00
45525;BME280;31437;58.350;13.828;2022-09-09T00:23:28;100320.75;;;8.89;100.00
45525;BME280;31437;58.350;13.828;2022-09-09T00:28:20;100313.31;;;8.99;100.00
45525;BME280;31437;58.350;13.828;2022-09-09T00:30:47;100307.00;;;9.03;100.00
45525;BME280;31437;58.350;13.828;2022-09-09T00:33:13;100312.97;;;9.06;100.00
45525;BME280;31437;58.350;13.828;2022-09-09T00:35:58;100299.75;;;9.09;100.00
45525;BME280;31437;58.350;13.828;2022-09-09T00:38:32;100301.28;;;9.14;100.00
45525;BME280;31437;58.350;13.828;2022-09-09T00:41:08;100297.63;;;9.18;100.00
45525;BME280;31437;58.350;13.828;2022-09-09T00:43:36;100291.31;;;9.22;100.00
45525;BME280;31437;58.350;13.828;2022-09-09T00:51:19;100284.94;;;9.27;100.00
45525;BME280;31437;58.350;13.828;2022-09-09T00:56:37;100279.47;;;9.32;100.00
45525;BME280;31437;58.350;13.828;2022-09-09T00:59:29;100268.94;;;9.33;100.00
45525;BME280;31437;58.350;13.828;2022-09-09T01:01:52;100271.41;;;9.37;100.00
45525;BME280;31437;58.350;13.828;2022-09-09T01:04:20;100267.88;;;9.38;100.00
45525;BME280;31437;58.350;13.828;2022-09-09T01:06:49;100261.72;;;9.39;100.00
45525;BME280;31437;58.350;13.828;2022-09-09T01:09:24;100259.81;;;9.42;100.00
45525;BME280;31437;58.350;13.828;2022-09-09T01:11:58;100257.19;;;9.42;100.00
45525;BME280;31437;58.350;13.828;2022-09-09T01:22:02;100239.41;;;9.49;100.00
45525;BME280;31437;58.350;13.828;2022-09-09T01:24:35;100239.34;;;9.50;100.00
45525;BME280;31437;58.350;13.828;2022-09-09T01:27:03;100239.19;;;9.53;100.00
45525;BME280;31437;58.350;13.828;2022-09-09T01:29:30;100239.78;;;9.59;100.00
45525;BME280;31437;58.350;13.828;2022-09-09T01:31:56;100237.94;;;9.61;100.00
45525;BME280;31437;58.350;13.828;2022-09-09T01:34:23;100231.78;;;9.62;100.00
45525;BME280;31437;58.350;13.828;2022-09-09T01:39:29;100220.16;;;9.67;100.00
45525;BME280;31437;58.350;13.828;2022-09-09T01:41:55;100219.25;;;9.68;100.00
45525;BME280;31437;58.350;13.828;2022-09-09T01:44:21;100215.63;;;9.71;100.00
45525;BME280;31437;58.350;13.828;2022-09-09T01:46:46;100210.31;;;9.72;100.00
45525;BME280;31437;58.350;13.828;2022-09-09T01:49:11;100205.00;;;9.74;100.00
45525;BME280;31437;58.350;13.828;2022-09-09T01:51:37;100206.63;;;9.76;100.00
45525;BME280;31437;58.350;13.828;2022-09-09T01:54:03;100202.81;;;9.82;100.00
45525;BME280;31437;58.350;13.828;2022-09-09T01:56:37;100191.34;;;9.85;100.00
45525;BME280;31437;58.350;13.828;2022-09-09T02:01:39;100185.03;;;9.89;100.00
45525;BME280;31437;58.350;13.828;2022-09-09T02:06:48;100171.53;;;9.96;100.00
45525;BME280;31437;58.350;13.828;2022-09-09T02:09:13;100165.28;;;9.99;100.00
45525;BME280;31437;58.350;13.828;2022-09-09T02:11:43;100153.88;;;10.00;100.00
45525;BME280;31437;58.350;13.828;2022-09-09T02:14:16;100150.22;;;10.02;100.00
45525;BME280;31437;58.350;13.828;2022-09-09T02:16:59;100142.31;;;10.04;100.00
45525;BME280;31437;58.350;13.828;2022-09-09T02:19:35;100131.56;;;10.09;100.00
45525;BME280;31437;58.350;13.828;2022-09-09T02:22:01;100126.09;;;10.13;100.00
45525;BME280;31437;58.350;13.828;2022-09-09T02:24:28;100119.00;;;10.15;100.00
45525;BME280;31437;58.350;13.828;2022-09-09T02:26:54;100111.88;;;10.17;100.00
45525;BME280;31437;58.350;13.828;2022-09-09T02:29:23;100113.50;;;10.20;100.00
45525;BME280;31437;58.350;13.828;2022-09-09T02:31:50;100111.66;;;10.22;100.00
45525;BME280;31437;58.350;13.828;2022-09-09T02:34:16;100104.44;;;10.26;100.00
45525;BME280;31437;58.350;13.828;2022-09-09T02:36:43;100099.00;;;10.30;100.00
45525;BME280;31437;58.350;13.828;2022-09-09T02:39:10;100095.38;;;10.33;100.00
45525;BME280;31437;58.350;13.828;2022-09-09T02:41:37;100090.88;;;10.35;100.00
45525;BME280;31437;58.350;13.828;2022-09-09T02:44:05;100083.72;;;10.38;100.00
45525;BME280;31437;58.350;13.828;2022-09-09T02:49:17;100076.50;;;10.42;100.00
45525;BME280;31437;58.350;13.828;2022-09-09T02:51:56;100072.00;;;10.44;100.00
45525;BME280;31437;58.350;13.828;2022-09-09T02:54:29;100069.31;;;10.45;100.00
45525;BME280;31437;58.350;13.828;2022-09-09T02:56:56;100070.94;;;10.48;100.00
45525;BME280;31437;58.350;13.828;2022-09-09T02:59:24;100063.81;;;10.50;100.00
45525;BME280;31437;58.350;13.828;2022-09-09T03:01:50;100062.03;;;10.51;100.00
45525;BME280;31437;58.350;13.828;2022-09-09T03:04:15;100066.28;;;10.53;100.00
45525;BME280;31437;58.350;13.828;2022-09-09T03:06:40;100054.84;;;10.54;100.00
45525;BME280;31437;58.350;13.828;2022-09-09T03:09:05;100049.50;;;10.56;100.00
45525;BME280;31437;58.350;13.828;2022-09-09T03:11:32;100046.81;;;10.57;100.00
45525;BME280;31437;58.350;13.828;2022-09-09T03:13:58;100048.47;;;10.58;100.00
45525;BME280;31437;58.350;13.828;2022-09-09T03:16:23;100039.78;;;10.58;100.00
45525;BME280;31437;58.350;13.828;2022-09-09T03:18:48;100041.44;;;10.59;100.00
45525;BME280;31437;58.350;13.828;2022-09-09T03:21:14;100045.97;;;10.57;100.00
45525;BME280;31437;58.350;13.828;2022-09-09T03:23:39;100041.56;;;10.57;100.00
45525;BME280;31437;58.350;13.828;2022-09-09T03:26:05;100034.88;;;10.52;100.00
45525;BME280;31437;58.350;13.828;2022-09-09T03:28:30;100028.03;;;10.49;100.00
45525;BME280;31437;58.350;13.828;2022-09-09T03:31:05;100023.63;;;10.50;100.00
45525;BME280;31437;58.350;13.828;2022-09-09T03:33:30;100040.06;;;10.53;100.00
45525;BME280;31437;58.350;13.828;2022-09-09T03:35:56;100030.47;;;10.52;100.00
45525;BME280;31437;58.350;13.828;2022-09-09T03:38:24;100031.59;;;10.48;100.00
45525;BME280;31437;58.350;13.828;2022-09-09T03:40:53;100032.59;;;10.45;100.00
45525;BME280;31437;58.350;13.828;2022-09-09T03:43:22;100024.91;;;10.42;100.00
45525;BME280;31437;58.350;13.828;2022-09-09T03:45:48;100026.59;;;10.43;100.00
45525;BME280;31437;58.350;13.828;2022-09-09T03:48:14;100016.94;;;10.44;100.00
45525;BME280;31437;58.350;13.828;2022-09-09T03:50:43;100017.97;;;10.41;100.00
45525;BME280;31437;58.350;13.828;2022-09-09T03:53:09;100024.25;;;10.39;100.00
45525;BME280;31437;58.350;13.828;2022-09-09T03:55:34;100017.38;;;10.36;100.00
45525;BME280;31437;58.350;13.828;2022-09-09T03:58:00;100018.47;;;10.32;100.00
45525;BME280;31437;58.350;13.828;2022-09-09T04:00:25;100017.72;;;10.30;100.00
45525;BME280;31437;58.350;13.828;2022-09-09T04:02:51;100015.28;;;10.27;100.00
45525;BME280;31437;58.350;13.828;2022-09-09T04:05:19;100017.94;;;10.26;100.00
45525;BME280;31437;58.350;13.828;2022-09-09T04:07:44;100023.19;;;10.26;100.00
45525;BME280;31437;58.350;13.828;2022-09-09T04:10:09;100028.53;;;10.24;100.00
45525;BME280;31437;58.350;13.828;2022-09-09T04:12:35;100023.47;;;10.21;100.00
45525;BME280;31437;58.350;13.828;2022-09-09T04:15:00;100030.56;;;10.19;100.00
45525;BME280;31437;58.350;13.828;2022-09-09T04:17:27;100031.81;;;10.12;100.00
45525;BME280;31437;58.350;13.828;2022-09-09T04:19:52;100031.06;;;10.10;100.00
45525;BME280;31437;58.350;13.828;2022-09-09T04:22:17;100040.94;;;10.05;100.00
45525;BME280;31437;58.350;13.828;2022-09-09T04:24:43;100039.25;;;10.04;100.00
45525;BME280;31437;58.350;13.828;2022-09-09T04:27:08;100034.09;;;10.02;100.00
45525;BME280;31437;58.350;13.828;2022-09-09T04:29:33;100041.94;;;10.02;100.00
45525;BME280;31437;58.350;13.828;2022-09-09T04:31:58;100044.72;;;9.99;100.00
45525;BME280;31437;58.350;13.828;2022-09-09T04:34:24;100046.44;;;10.00;100.00
45525;BME280;31437;58.350;13.828;2022-09-09T04:36:50;100045.41;;;10.02;100.00
45525;BME280;31437;58.350;13.828;2022-09-09T04:39:16;100044.66;;;10.00;100.00
45525;BME280;31437;58.350;13.828;2022-09-09T04:41:42;100041.19;;;10.00;100.00
45525;BME280;31437;58.350;13.828;2022-09-09T04:44:07;100035.97;;;10.00;100.00
45525;BME280;31437;58.350;13.828;2022-09-09T04:46:32;100036.88;;;9.99;100.00
45525;BME280;31437;58.350;13.828;2022-09-09T04:48:59;100032.56;;;9.98;100.00
45525;BME280;31437;58.350;13.828;2022-09-09T04:51:25;100032.41;;;10.01;100.00
45525;BME280;31437;58.350;13.828;2022-09-09T04:53:50;100036.03;;;10.14;100.00
45525;BME280;31437;58.350;13.828;2022-09-09T04:56:16;100033.03;;;10.38;100.00
45525;BME280;31437;58.350;13.828;2022-09-09T04:58:42;100032.16;;;10.69;100.00
45525;BME280;31437;58.350;13.828;2022-09-09T05:01:12;100033.09;;;10.98;100.00
45525;BME280;31437;58.350;13.828;2022-09-09T05:03:37;100016.56;;;11.12;100.00
45525;BME280;31437;58.350;13.828;2022-09-09T05:06:06;100016.34;;;11.29;100.00
45525;BME280;31437;58.350;13.828;2022-09-09T05:08:33;100026.03;;;11.43;100.00
45525;BME280;31437;58.350;13.828;2022-09-09T05:10:58;100014.06;;;11.39;100.00
45525;BME280;31437;58.350;13.828;2022-09-09T05:13:25;100004.09;;;11.30;100.00
45525;BME280;31437;58.350;13.828;2022-09-09T05:15:53;100014.03;;;11.25;100.00
45525;BME280;31437;58.350;13.828;2022-09-09T05:18:19;100014.22;;;11.22;100.00
45525;BME280;31437;58.350;13.828;2022-09-09T05:20:44;100004.06;;;11.16;100.00
45525;BME280;31437;58.350;13.828;2022-09-09T05:23:09;99990.28;;;11.12;100.00
45525;BME280;31437;58.350;13.828;2022-09-09T05:25:38;99996.75;;;11.06;100.00
45525;BME280;31437;58.350;13.828;2022-09-09T05:28:03;99980.97;;;10.92;100.00
45525;BME280;31437;58.350;13.828;2022-09-09T05:30:28;100003.19;;;11.01;100.00
45525;BME280;31437;58.350;13.828;2022-09-09T05:32:57;99995.22;;;11.02;100.00
45525;BME280;31437;58.350;13.828;2022-09-09T05:35:22;99986.81;;;11.11;100.00
45525;BME280;31437;58.350;13.828;2022-09-09T05:37:48;99990.50;;;11.37;100.00
45525;BME280;31437;58.350;13.828;2022-09-09T05:40:13;99991.81;;;11.73;100.00
45525;BME280;31437;58.350;13.828;2022-09-09T05:42:38;99987.38;;;12.02;100.00
45525;BME280;31437;58.350;13.828;2022-09-09T05:45:04;99981.84;;;12.34;100.00
45525;BME280;31437;58.350;13.828;2022-09-09T05:47:30;99965.56;;;12.69;100.00
45525;BME280;31437;58.350;13.828;2022-09-09T05:49:55;99962.84;;;12.96;100.00
45525;BME280;31437;58.350;13.828;2022-09-09T05:52:20;99954.94;;;12.96;100.00
45525;BME280;31437;58.350;13.828;2022-09-09T05:54:46;99950.22;;;13.14;100.00
45525;BME280;31437;58.350;13.828;2022-09-09T05:57:11;99943.50;;;13.48;100.00
45525;BME280;31437;58.350;13.828;2022-09-09T05:59:36;99945.09;;;13.51;100.00
45525;BME280;31437;58.350;13.828;2022-09-09T06:02:02;99937.06;;;13.65;100.00
45525;BME280;31437;58.350;13.828;2022-09-09T06:04:27;99928.97;;;13.92;100.00
45525;BME280;31437;58.350;13.828;2022-09-09T06:06:52;99936.59;;;14.08;100.00
45525;BME280;31437;58.350;13.828;2022-09-09T06:09:18;99924.59;;;14.28;100.00
45525;BME280;31437;58.350;13.828;2022-09-09T06:11:43;99919.41;;;14.50;100.00
45525;BME280;31437;58.350;13.828;2022-09-09T06:14:09;99909.78;;;14.73;100.00
45525;BME280;31437;58.350;13.828;2022-09-09T06:16:34;99896.25;;;14.78;100.00
45525;BME280;31437;58.350;13.828;2022-09-09T06:19:00;99899.75;;;14.90;100.00
45525;BME280;31437;58.350;13.828;2022-09-09T06:21:27;99901.34;;;15.04;100.00
45525;BME280;31437;58.350;13.828;2022-09-09T06:23:52;99892.44;;;15.05;100.00
45525;BME280;31437;58.350;13.828;2022-09-09T06:28:51;99899.63;;;15.14;100.00
45525;BME280;31437;58.350;13.828;2022-09-09T06:31:18;99892.06;;;15.20;100.00
45525;BME280;31437;58.350;13.828;2022-09-09T06:33:47;99886.09;;;15.30;100.00
45525;BME280;31437;58.350;13.828;2022-09-09T06:36:19;99884.78;;;15.24;100.00
45525;BME280;31437;58.350;13.828;2022-09-09T06:38:45;99883.94;;;15.24;100.00
45525;BME280;31437;58.350;13.828;2022-09-09T06:41:11;99891.47;;;15.28;100.00
45525;BME280;31437;58.350;13.828;2022-09-09T06:43:37;99895.81;;;15.40;100.00
45525;BME280;31437;58.350;13.828;2022-09-09T06:46:06;99884.75;;;15.13;100.00
45525;BME280;31437;58.350;13.828;2022-09-09T06:48:33;99903.66;;;14.73;100.00
45525;BME280;31437;58.350;13.828;2022-09-09T06:51:08;99898.56;;;14.59;100.00
45525;BME280;31437;58.350;13.828;2022-09-09T06:53:35;99891.69;;;14.45;100.00
45525;BME280;31437;58.350;13.828;2022-09-09T06:56:01;99905.47;;;14.48;100.00
45525;BME280;31437;58.350;13.828;2022-09-09T06:58:27;99902.19;;;14.58;100.00
45525;BME280;31437;58.350;13.828;2022-09-09T07:01:01;99911.47;;;14.74;100.00
45525;BME280;31437;58.350;13.828;2022-09-09T07:03:26;99911.94;;;14.68;100.00
45525;BME280;31437;58.350;13.828;2022-09-09T07:05:57;99903.56;;;14.74;100.00
45525;BME280;31437;58.350;13.828;2022-09-09T07:08:23;99902.50;;;14.99;100.00
45525;BME280;31437;58.350;13.828;2022-09-09T07:10:50;99909.13;;;15.05;100.00
45525;BME280;31437;58.350;13.828;2022-09-09T07:13:16;99905.34;;;14.50;100.00
45525;BME280;31437;58.350;13.828;2022-09-09T07:15:41;99907.78;;;14.29;100.00
45525;BME280;31437;58.350;13.828;2022-09-09T07:18:07;99906.69;;;13.96;100.00
45525;BME280;31437;58.350;13.828;2022-09-09T07:20:32;99923.16;;;13.87;100.00
45525;BME280;31437;58.350;13.828;2022-09-09T07:22:57;99923.66;;;13.68;100.00
45525;BME280;31437;58.350;13.828;2022-09-09T07:25:24;99924.38;;;13.70;100.00
45525;BME280;31437;58.350;13.828;2022-09-09T07:27:49;99927.00;;;13.70;100.00
45525;BME280;31437;58.350;13.828;2022-09-09T07:30:14;99922.78;;;13.80;100.00
45525;BME280;31437;58.350;13.828;2022-09-09T07:32:40;99922.56;;;14.07;100.00
45525;BME280;31437;58.350;13.828;2022-09-09T07:35:05;99934.31;;;14.03;100.00
45525;BME280;31437;58.350;13.828;2022-09-09T07:37:30;99922.84;;;13.92;100.00
45525;BME280;31437;58.350;13.828;2022-09-09T07:39:56;99928.78;;;13.82;100.00
45525;BME280;31437;58.350;13.828;2022-09-09T07:42:21;99933.94;;;13.84;100.00
45525;BME280;31437;58.350;13.828;2022-09-09T07:44:46;99925.19;;;13.83;100.00
45525;BME280;31437;58.350;13.828;2022-09-09T07:47:12;99946.19;;;13.72;100.00
45525;BME280;31437;58.350;13.828;2022-09-09T07:49:37;99932.44;;;13.43;100.00
45525;BME280;31437;58.350;13.828;2022-09-09T07:52:02;99932.88;;;13.37;100.00
45525;BME280;31437;58.350;13.828;2022-09-09T07:54:28;99931.84;;;13.27;100.00
45525;BME280;31437;58.350;13.828;2022-09-09T07:56:53;99930.22;;;13.24;100.00
45525;BME280;31437;58.350;13.828;2022-09-09T07:59:19;99930.75;;;13.16;100.00
45525;BME280;31437;58.350;13.828;2022-09-09T08:01:53;99937.28;;;13.11;100.00
45525;BME280;31437;58.350;13.828;2022-09-09T08:04:19;99940.13;;;13.08;100.00
45525;BME280;31437;58.350;13.828;2022-09-09T08:06:46;99944.09;;;12.88;100.00
45525;BME280;31437;58.350;13.828;2022-09-09T08:09:12;99946.63;;;12.89;100.00
45525;BME280;31437;58.350;13.828;2022-09-09T08:11:37;99950.03;;;12.91;100.00
45525;BME280;31437;58.350;13.828;2022-09-09T08:14:03;99932.63;;;12.89;100.00
45525;BME280;31437;58.350;13.828;2022-09-09T08:16:30;99948.53;;;12.87;100.00
45525;BME280;31437;58.350;13.828;2022-09-09T08:18:55;99943.78;;;12.92;100.00
45525;BME280;31437;58.350;13.828;2022-09-09T08:21:22;99932.00;;;13.11;100.00
45525;BME280;31437;58.350;13.828;2022-09-09T08:23:49;99929.63;;;13.33;100.00
45525;BME280;31437;58.350;13.828;2022-09-09T08:26:20;99930.84;;;13.53;100.00
45525;BME280;31437;58.350;13.828;2022-09-09T08:28:49;99938.38;;;13.83;100.00
45525;BME280;31437;58.350;13.828;2022-09-09T08:31:19;99932.66;;;13.90;100.00
45525;BME280;31437;58.350;13.828;2022-09-09T08:33:44;99926.94;;;14.20;100.00
45525;BME280;31437;58.350;13.828;2022-09-09T08:36:17;99921.63;;;14.32;100.00
45525;BME280;31437;58.350;13.828;2022-09-09T08:38:43;99923.31;;;14.58;100.00
45525;BME280;31437;58.350;13.828;2022-09-09T08:43:40;99902.63;;;14.87;100.00
45525;BME280;31437;58.350;13.828;2022-09-09T08:46:11;99900.97;;;15.31;100.00
45525;BME280;31437;58.350;13.828;2022-09-09T08:48:44;99902.41;;;15.57;100.00
45525;BME280;31437;58.350;13.828;2022-09-09T08:51:13;99894.25;;;15.72;100.00
45525;BME280;31437;58.350;13.828;2022-09-09T08:53:46;99894.19;;;15.94;100.00
45525;BME280;31437;58.350;13.828;2022-09-09T08:56:13;99898.78;;;15.81;100.00
45525;BME280;31437;58.350;13.828;2022-09-09T08:58:46;99892.78;;;15.67;100.00
45525;BME280;31437;58.350;13.828;2022-09-09T09:06:49;99892.75;;;14.77;100.00
45525;BME280;31437;58.350;13.828;2022-09-09T09:09:26;99878.31;;;14.70;100.00
45525;BME280;31437;58.350;13.828;2022-09-09T09:12:00;99882.19;;;14.77;100.00
45525;BME280;31437;58.350;13.828;2022-09-09T09:14:29;99889.16;;;14.79;100.00
45525;BME280;31437;58.350;13.828;2022-09-09T09:16:59;99880.31;;;15.02;100.00
45525;BME280;31437;58.350;13.828;2022-09-09T09:19:25;99874.19;;;15.02;100.00
45525;BME280;31437;58.350;13.828;2022-09-09T09:24:24;99881.56;;;14.63;100.00
45525;BME280;31437;58.350;13.828;2022-09-09T09:26:50;99889.53;;;14.50;100.00
45525;BME280;31437;58.350;13.828;2022-09-09T09:29:18;99898.03;;;14.42;100.00
45525;BME280;31437;58.350;13.828;2022-09-09T09:31:55;99887.66;;;14.28;100.00
45525;BME280;31437;58.350;13.828;2022-09-09T09:34:23;99885.94;;;14.16;100.00
45525;BME280;31437;58.350;13.828;2022-09-09T09:36:53;99893.94;;;14.14;100.00
45525;BME280;31437;58.350;13.828;2022-09-09T09:39:26;99892.59;;;14.08;100.00
45525;BME280;31437;58.350;13.828;2022-09-09T09:41:52;99879.03;;;14.02;100.00
45525;BME280;31437;58.350;13.828;2022-09-09T09:44:28;99892.78;;;13.94;100.00
45525;BME280;31437;58.350;13.828;2022-09-09T09:47:05;99902.25;;;13.97;100.00
45525;BME280;31437;58.350;13.828;2022-09-09T09:49:30;99892.78;;;13.94;100.00
45525;BME280;31437;58.350;13.828;2022-09-09T09:51:59;99890.31;;;14.04;100.00
45525;BME280;31437;58.350;13.828;2022-09-09T09:54:28;99892.56;;;14.21;100.00
45525;BME280;31437;58.350;13.828;2022-09-09T09:56:54;99872.75;;;14.51;100.00
45525;BME280;31437;58.350;13.828;2022-09-09T09:59:21;99871.91;;;14.86;100.00
45525;BME280;31437;58.350;13.828;2022-09-09T10:01:47;99880.31;;;15.25;100.00
45525;BME280;31437;58.350;13.828;2022-09-09T10:06:37;99869.13;;;15.43;100.00
45525;BME280;31437;58.350;13.828;2022-09-09T10:09:18;99853.50;;;15.52;100.00
45525;BME280;31437;58.350;13.828;2022-09-09T10:11:55;99840.47;;;15.82;100.00
45525;BME280;31437;58.350;13.828;2022-09-09T10:14:31;99858.28;;;15.80;100.00
45525;BME280;31437;58.350;13.828;2022-09-09T10:19:35;99825.66;;;15.91;100.00
45525;BME280;31437;58.350;13.828;2022-09-09T10:30:02;99818.53;;;15.71;100.00
45525;BME280;31437;58.350;13.828;2022-09-09T10:32:47;99830.53;;;15.75;100.00
45525;BME280;31437;58.350;13.828;2022-09-09T10:37:51;99839.69;;;15.71;100.00
45525;BME280;31437;58.350;13.828;2022-09-09T10:42:45;99836.91;;;15.72;100.00
45525;BME280;31437;58.350;13.828;2022-09-09T10:45:32;99833.66;;;15.80;100.00
45525;BME280;31437;58.350;13.828;2022-09-09T10:48:44;99832.09;;;15.77;100.00
45525;BME280;31437;58.350;13.828;2022-09-09T10:51:35;99835.25;;;16.03;100.00
45525;BME280;31437;58.350;13.828;2022-09-09T10:56:09;99838.34;;;16.08;100.00
45525;BME280;31437;58.350;13.828;2022-09-09T10:58:58;99836.22;;;16.23;100.00
45525;BME280;31437;58.350;13.828;2022-09-09T11:01:36;99828.50;;;16.31;100.00
45525;BME280;31437;58.350;13.828;2022-09-09T11:04:05;99835.38;;;16.23;100.00
45525;BME280;31437;58.350;13.828;2022-09-09T11:06:37;99831.97;;;16.32;100.00
45525;BME280;31437;58.350;13.828;2022-09-09T11:09:04;99826.25;;;16.27;100.00
45525;BME280;31437;58.350;13.828;2022-09-09T11:11:39;99842.47;;;16.01;100.00
45525;BME280;31437;58.350;13.828;2022-09-09T11:21:51;99841.72;;;15.56;100.00
45525;BME280;31437;58.350;13.828;2022-09-09T11:24:37;99843.31;;;15.47;100.00
45525;BME280;31437;58.350;13.828;2022-09-09T11:34:47;99843.50;;;15.66;100.00
45525;BME280;31437;58.350;13.828;2022-09-09T11:39:48;99845.91;;;15.81;100.00
45525;BME280;31437;58.350;13.828;2022-09-09T11:42:20;99841.59;;;15.80;100.00
45525;BME280;31437;58.350;13.828;2022-09-09T11:44:45;99839.44;;;15.74;100.00
45525;BME280;31437;58.350;13.828;2022-09-09T11:47:25;99841.63;;;15.69;100.00
45525;BME280;31437;58.350;13.828;2022-09-09T11:49:54;99839.69;;;15.59;100.00
45525;BME280;31437;58.350;13.828;2022-09-09T11:54:48;99844.50;;;15.43;100.00
45525;BME280;31437;58.350;13.828;2022-09-09T11:57:34;99843.19;;;15.37;100.00
45525;BME280;31437;58.350;13.828;2022-09-09T12:00:00;99852.94;;;15.37;100.00
45525;BME280;31437;58.350;13.828;2022-09-09T12:02:26;99847.41;;;15.29;100.00
45525;BME280;31437;58.350;13.828;2022-09-09T12:05:05;99841.19;;;15.18;100.00
45525;BME280;31437;58.350;13.828;2022-09-09T12:07:37;99839.75;;;15.03;100.00
45525;BME280;31437;58.350;13.828;2022-09-09T12:12:31;99845.00;;;14.92;100.00
45525;BME280;31437;58.350;13.828;2022-09-09T12:17:25;99849.28;;;14.70;100.00
45525;BME280;31437;58.350;13.828;2022-09-09T12:27:31;99838.09;;;14.56;100.00
45525;BME280;31437;58.350;13.828;2022-09-09T12:30:32;99841.94;;;14.51;100.00
45525;BME280;31437;58.350;13.828;2022-09-09T12:35:58;99841.03;;;14.40;100.00
45525;BME280;31437;58.350;13.828;2022-09-09T12:38:32;99848.22;;;14.38;100.00
45525;BME280;31437;58.350;13.828;2022-09-09T12:40:59;99844.97;;;14.34;100.00
45525;BME280;31437;58.350;13.828;2022-09-09T12:43:25;99841.50;;;14.34;100.00
45525;BME280;31437;58.350;13.828;2022-09-09T12:45:53;99840.16;;;14.28;100.00
45525;BME280;31437;58.350;13.828;2022-09-09T12:48:23;99845.53;;;14.26;100.00
45525;BME280;31437;58.350;13.828;2022-09-09T12:50:50;99847.47;;;14.24;100.00
45525;BME280;31437;58.350;13.828;2022-09-09T12:55:49;99847.09;;;14.18;100.00
45525;BME280;31437;58.350;13.828;2022-09-09T12:58:14;99849.84;;;14.16;100.00
45525;BME280;31437;58.350;13.828;2022-09-09T13:00:48;99845.75;;;14.12;100.00
45525;BME280;31437;58.350;13.828;2022-09-09T13:03:19;99842.38;;;14.10;100.00
45525;BME280;31437;58.350;13.828;2022-09-09T13:05:48;99843.44;;;14.07;100.00
45525;BME280;31437;58.350;13.828;2022-09-09T13:08:14;99843.56;;;14.06;100.00
45525;BME280;31437;58.350;13.828;2022-09-09T13:13:20;99844.75;;;14.02;100.00
45525;BME280;31437;58.350;13.828;2022-09-09T13:15:50;99840.53;;;13.99;100.00
45525;BME280;31437;58.350;13.828;2022-09-09T13:18:16;99845.19;;;13.96;100.00
45525;BME280;31437;58.350;13.828;2022-09-09T13:20:48;99839.19;;;13.94;100.00
45525;BME280;31437;58.350;13.828;2022-09-09T13:23:14;99839.31;;;13.92;100.00
45525;BME280;31437;58.350;13.828;2022-09-09T13:25:40;99839.41;;;13.91;100.00
45525;BME280;31437;58.350;13.828;2022-09-09T13:28:18;99840.38;;;13.90;100.00
45525;BME280;31437;58.350;13.828;2022-09-09T13:30:54;99838.19;;;13.83;100.00
45525;BME280;31437;58.350;13.828;2022-09-09T13:33:22;99843.69;;;13.80;100.00
45525;BME280;31437;58.350;13.828;2022-09-09T13:35:52;99839.47;;;13.78;100.00
45525;BME280;31437;58.350;13.828;2022-09-09T13:38:19;99841.59;;;13.73;100.00
45525;BME280;31437;58.350;13.828;2022-09-09T13:43:21;99848.91;;;13.69;100.00
45525;BME280;31437;58.350;13.828;2022-09-09T13:45:57;99847.09;;;13.70;100.00
45525;BME280;31437;58.350;13.828;2022-09-09T13:48:23;99854.91;;;13.71;100.00
45525;BME280;31437;58.350;13.828;2022-09-09T13:50:55;99855.13;;;13.68;100.00
45525;BME280;31437;58.350;13.828;2022-09-09T13:53:21;99856.06;;;13.67;100.00
45525;BME280;31437;58.350;13.828;2022-09-09T13:55:46;99859.53;;;13.68;100.00
45525;BME280;31437;58.350;13.828;2022-09-09T13:58:15;99859.66;;;13.66;100.00
45525;BME280;31437;58.350;13.828;2022-09-09T14:00:41;99862.28;;;13.66;100.00
45525;BME280;31437;58.350;13.828;2022-09-09T14:03:09;99857.03;;;13.66;100.00
45525;BME280;31437;58.350;13.828;2022-09-09T14:05:35;99849.94;;;13.67;100.00
45525;BME280;31437;58.350;13.828;2022-09-09T14:08:00;99857.03;;;13.66;100.00
45525;BME280;31437;58.350;13.828;2022-09-09T14:10:26;99859.44;;;13.69;100.00
45525;BME280;31437;58.350;13.828;2022-09-09T14:12:51;99855.97;;;13.69;100.00
45525;BME280;31437;58.350;13.828;2022-09-09T14:15:17;99850.56;;;13.70;100.00
45525;BME280;31437;58.350;13.828;2022-09-09T14:17:43;99857.63;;;13.70;100.00
45525;BME280;31437;58.350;13.828;2022-09-09T14:20:09;99862.06;;;13.69;100.00
45525;BME280;31437;58.350;13.828;2022-09-09T14:22:36;99861.09;;;13.70;100.00
45525;BME280;31437;58.350;13.828;2022-09-09T14:25:02;99853.19;;;13.70;100.00
45525;BME280;31437;58.350;13.828;2022-09-09T14:27:27;99850.56;;;13.70;100.00
45525;BME280;31437;58.350;13.828;2022-09-09T14:29:53;99856.91;;;13.68;100.00
45525;BME280;31437;58.350;13.828;2022-09-09T14:32:19;99854.25;;;13.68;100.00
45525;BME280;31437;58.350;13.828;2022-09-09T14:34:46;99861.09;;;13.70;100.00
45525;BME280;31437;58.350;13.828;2022-09-09T14:37:14;99859.53;;;13.68;100.00
45525;BME280;31437;58.350;13.828;2022-09-09T14:39:39;99858.47;;;13.70;100.00